Time;durP1;ratioP1;P1;durP2;ratioP2;P2;SDS_P1;SDS_P2;PMS_P1;PMS_P2;Temp;Humidity;BMP_temperature;BMP_pressure;BME280_temperature;BME280_humidity;BME280_pressure;Samples;Min_cycle;Max_cycle;Signal;HPM_P1;HPM_P2
2023/08/27 00:02:43;;;;;;;4.40;2.85;;;;;;;;;;4398449;32;66583;-61
2023/08/27 00:05:38;;;;;;;5.50;3.05;;;;;;;;;;4399180;32;66686;-62
2023/08/27 00:08:31;;;;;;;6.25;2.78;;;;;;;;;;4387588;32;70726;-62
2023/08/27 00:11:21;;;;;;;5.10;2.92;;;;;;;;;;4398400;32;64758;-61
2023/08/27 00:14:22;;;;;;;3.60;2.60;;;;;;;;;;4388705;32;67394;-62
2023/08/27 00:17:30;;;;;;;;;;;;;;;;;;;;;
2023/08/27 00:21:04;;;;;;;5.03;3.12;;;;;;;;;;4397370;32;69630;-61
2023/08/27 00:24:05;;;;;;;5.30;3.03;;;;;;;;;;4397947;32;68444;-62
2023/08/27 00:27:01;;;;;;;3.97;2.90;;;;;;;;;;4397911;32;67655;-61
2023/08/27 00:29:58;;;;;;;5.47;3.10;;;;;;;;;;4389067;32;60125;-61
2023/08/27 00:33:05;;;;;;;6.60;3.83;;;;;;;;;;4398895;32;68243;-61
2023/08/27 00:36:02;;;;;;;7.87;4.10;;;;;;;;;;4399001;32;68504;-61
2023/08/27 00:38:49;;;;;;;7.25;3.97;;;;;;;;;;4397556;32;67657;-60
2023/08/27 00:41:38;;;;;;;7.60;3.58;;;;;;;;;;4398921;32;70728;-61
2023/08/27 00:44:25;;;;;;;5.85;3.53;;;;;;;;;;4397594;32;64909;-61
2023/08/27 00:47:15;;;;;;;;;;;;;;;;;;4386778;32;66374;-61
2023/08/27 00:50:05;;;;;;;5.28;2.80;;;;;;;;;;4398082;32;59287;-61
2023/08/27 00:52:54;;;;;;;4.22;2.90;;;;;;;;;;4398361;32;70398;-62
2023/08/27 00:55:41;;;;;;;;;;;;;;;;;;4388178;32;65670;-62
2023/08/27 00:58:27;;;;;;;4.85;2.83;;;;;;;;;;4399528;32;68079;-61
2023/08/27 01:01:15;;;;;;;4.25;2.70;;;;;;;;;;4386957;32;60386;-61
2023/08/27 01:04:02;;;;;;;4.37;2.47;;;;;;;;;;4397408;32;69304;-62
2023/08/27 01:06:50;;;;;;;5.50;2.85;;;;;;;;;;4398903;32;69215;-61
2023/08/27 01:10:09;;;;;;;4.07;2.50;;;;;;;;;;4397214;32;67832;-62
2023/08/27 01:13:04;;;;;;;3.80;2.90;;;;;;;;;;4381640;32;71941;-60
2023/08/27 01:16:02;;;;;;;5.62;3.08;;;;;;;;;;4397166;32;64900;-61
2023/08/27 01:18:50;;;;;;;4.40;2.85;;;;;;;;;;4398608;32;66652;-61
2023/08/27 01:21:39;;;;;;;4.10;2.85;;;;;;;;;;4375917;32;67173;-61
2023/08/27 01:24:25;;;;;;;4.07;2.55;;;;;;;;;;4398146;32;70783;-61
2023/08/27 01:27:27;;;;;;;7.18;3.10;;;;;;;;;;4397097;32;65786;-61
2023/08/27 01:30:32;;;;;;;8.25;3.47;;;;;;;;;;4398207;32;66721;-61
2023/08/27 01:33:26;;;;;;;5.35;3.20;;;;;;;;;;4386582;32;58954;-60
2023/08/27 01:36:29;;;;;;;3.85;2.65;;;;;;;;;;4398246;32;69540;-61
2023/08/27 01:39:17;;;;;;;4.32;2.65;;;;;;;;;;4396793;32;68235;-61
2023/08/27 01:42:09;;;;;;;5.03;3.17;;;;;;;;;;4398362;32;67647;-61
2023/08/27 01:45:03;;;;;;;6.57;3.10;;;;;;;;;;4386679;32;70632;-61
2023/08/27 01:48:00;;;;;;;4.62;2.80;;;;;;;;;;4396388;32;68247;-61
2023/08/27 01:50:49;;;;;;;4.55;3.12;;;;;;;;;;4396315;32;67037;-61
2023/08/27 01:53:47;;;;;;;4.93;3.12;;;;;;;;;;4397793;32;67982;-62
2023/08/27 01:56:33;;;;;;;;;;;;;;;;;;4397031;32;71875;-61
2023/08/27 01:59:25;;;;;;;5.10;3.20;;;;;;;;;;4399453;32;65380;-61
2023/08/27 02:02:17;;;;;;;4.07;2.92;;;;;;;;;;4386274;32;66768;-61
2023/08/27 02:05:07;;;;;;;4.95;3.00;;;;;;;;;;4397192;32;59969;-61
2023/08/27 02:07:54;;;;;;;4.85;2.80;;;;;;;;;;4397852;32;70518;-62
2023/08/27 02:10:42;;;;;;;5.45;2.97;;;;;;;;;;4396555;32;69227;-61
2023/08/27 02:13:33;;;;;;;5.97;3.08;;;;;;;;;;4375892;32;66777;-61
2023/08/27 02:16:21;;;;;;;4.55;3.17;;;;;;;;;;4375741;32;58495;-62
2023/08/27 02:19:10;;;;;;;6.43;3.20;;;;;;;;;;4396713;32;70494;-61
2023/08/27 02:21:59;;;;;;;4.57;2.90;;;;;;;;;;4385318;32;67142;-62
2023/08/27 02:24:48;;;;;;;5.70;3.10;;;;;;;;;;4397565;32;66677;-61
2023/08/27 02:27:35;;;;;;;5.18;3.35;;;;;;;;;;4396458;32;71653;-62
2023/08/27 02:30:21;;;;;;;5.53;3.80;;;;;;;;;;4397956;32;65872;-62
2023/08/27 02:33:15;;;;;;;4.53;3.12;;;;;;;;;;4386265;32;67530;-61
2023/08/27 02:36:02;;;;;;;4.50;2.95;;;;;;;;;;4396076;32;58793;-61
2023/08/27 02:38:48;;;;;;;5.40;3.20;;;;;;;;;;4385254;32;69931;-62
2023/08/27 02:41:37;;;;;;;;;;;;;;;;;;4399040;32;65705;-61
2023/08/27 02:44:29;;;;;;;6.93;3.30;;;;;;;;;;4377620;32;67609;-61
2023/08/27 02:47:16;;;;;;;6.90;3.03;;;;;;;;;;4399481;32;59357;-61
2023/08/27 02:50:03;;;;;;;4.43;2.90;;;;;;;;;;4399168;32;70538;-61
2023/08/27 02:52:51;;;;;;;4.68;2.97;;;;;;;;;;4400478;32;69454;-62
2023/08/27 02:55:40;;;;;;;4.25;3.15;;;;;;;;;;4398811;32;66907;-61
2023/08/27 02:58:30;;;;;;;4.85;3.00;;;;;;;;;;4398935;32;70695;-62
2023/08/27 03:01:20;;;;;;;4.57;3.10;;;;;;;;;;4399948;32;70804;-61
2023/08/27 03:04:07;;;;;;;3.78;2.78;;;;;;;;;;4387598;32;67201;-62
2023/08/27 03:06:53;;;;;;;;;;;;;;;;;;4400429;32;67591;-61
2023/08/27 03:09:40;;;;;;;4.60;3.10;;;;;;;;;;4400290;32;70938;-61
2023/08/27 03:12:28;;;;;;;4.93;2.72;;;;;;;;;;4388261;32;65495;-62
2023/08/27 03:15:15;;;;;;;4.55;2.85;;;;;;;;;;4399826;32;67569;-62
2023/08/27 03:18:03;;;;;;;3.87;2.60;;;;;;;;;;4402640;32;60150;-62
2023/08/27 03:20:53;;;;;;;3.58;2.62;;;;;;;;;;4388312;32;70642;-62
2023/08/27 03:23:49;;;;;;;4.03;2.90;;;;;;;;;;4398554;32;69443;-61
2023/08/27 03:26:41;;;;;;;5.15;3.10;;;;;;;;;;4399756;32;67951;-61
2023/08/27 03:29:30;;;;;;;5.70;2.85;;;;;;;;;;4398738;32;58957;-61
2023/08/27 03:32:17;;;;;;;3.95;2.45;;;;;;;;;;4397915;32;70571;-61
2023/08/27 03:35:04;;;;;;;3.25;2.40;;;;;;;;;;4387709;32;69682;-61
2023/08/27 03:37:58;;;;;;;3.25;2.50;;;;;;;;;;4399574;32;67793;-62
2023/08/27 03:40:48;;;;;;;4.25;2.67;;;;;;;;;;4398332;32;71490;-62
2023/08/27 03:43:35;;;;;;;3.42;2.58;;;;;;;;;;4399130;32;65968;-61
2023/08/27 03:46:24;;;;;;;3.50;2.33;;;;;;;;;;4398318;32;67687;-61
2023/08/27 03:49:15;;;;;;;3.22;2.25;;;;;;;;;;4387193;32;60754;-61
2023/08/27 03:52:17;;;;;;;3.65;2.70;;;;;;;;;;4398083;32;70551;-61
2023/08/27 03:55:04;;;;;;;2.72;2.00;;;;;;;;;;4386461;32;66373;-61
2023/08/27 03:57:54;;;;;;;3.22;1.95;;;;;;;;;;4399378;32;67676;-62
2023/08/27 04:00:44;;;;;;;5.80;2.58;;;;;;;;;;4398361;32;59935;-61
2023/08/27 04:03:37;;;;;;;4.43;2.37;;;;;;;;;;4397419;32;68723;-61
2023/08/27 04:06:27;;;;;;;3.12;2.15;;;;;;;;;;4399174;32;69736;-62
2023/08/27 04:09:15;;;;;;;3.58;2.15;;;;;;;;;;4388239;32;68463;-61
2023/08/27 04:12:01;;;;;;;4.68;2.53;;;;;;;;;;4397860;32;71647;-61
2023/08/27 04:14:52;;;;;;;2.85;2.35;;;;;;;;;;4399508;32;65896;-61
2023/08/27 04:17:46;;;;;;;3.92;2.40;;;;;;;;;;4397909;32;69144;-61
2023/08/27 04:20:39;;;;;;;3.00;2.10;;;;;;;;;;4399157;32;67775;-61
2023/08/27 04:23:28;;;;;;;2.53;2.03;;;;;;;;;;4399105;32;70708;-61
2023/08/27 04:26:24;;;;;;;3.75;2.47;;;;;;;;;;4399119;32;66013;-61
2023/08/27 04:29:16;;;;;;;3.15;2.30;;;;;;;;;;4399001;32;67856;-61
2023/08/27 04:32:13;;;;;;;2.95;2.20;;;;;;;;;;4397906;32;59325;-61
2023/08/27 04:35:05;;;;;;;3.70;2.28;;;;;;;;;;4397668;32;69699;-62
2023/08/27 04:38:03;;;;;;;;;;;;;;;;;;;;;
2023/08/27 04:40:57;;;;;;;5.35;2.30;;;;;;;;;;4400238;32;67355;-61
2023/08/27 04:43:49;;;;;;;4.35;2.50;;;;;;;;;;4397915;32;60065;-61
2023/08/27 04:46:37;;;;;;;3.03;2.30;;;;;;;;;;4397346;32;69739;-61
2023/08/27 04:49:27;;;;;;;3.72;2.60;;;;;;;;;;4386428;32;67067;-62
2023/08/27 04:52:18;;;;;;;3.60;2.60;;;;;;;;;;4386389;32;68213;-61
2023/08/27 04:55:13;;;;;;;4.55;2.90;;;;;;;;;;4398378;32;71871;-62
2023/08/27 04:58:05;;;;;;;5.28;3.30;;;;;;;;;;4398907;32;66019;-61
2023/08/27 05:00:54;;;;;;;3.87;3.05;;;;;;;;;;4397542;32;67982;-61
2023/08/27 05:03:46;;;;;;;4.32;3.17;;;;;;;;;;4398359;32;59910;-61
2023/08/27 05:06:33;;;;;;;5.78;3.10;;;;;;;;;;4397353;32;69427;-62
2023/08/27 05:09:21;;;;;;;5.05;3.25;;;;;;;;;;4400881;32;64927;-62
2023/08/27 05:12:23;;;;;;;4.72;3.10;;;;;;;;;;4376844;32;68293;-61
2023/08/27 05:15:10;;;;;;;4.78;3.08;;;;;;;;;;4387556;32;58986;-62
2023/08/27 05:18:09;;;;;;;4.37;3.03;;;;;;;;;;4399508;32;70370;-61
2023/08/27 05:21:02;;;;;;;4.55;3.12;;;;;;;;;;4386771;32;68456;-62
2023/08/27 05:23:52;;;;;;;6.85;3.40;;;;;;;;;;4397278;32;67240;-62
2023/08/27 05:26:44;;;;;;;4.53;3.10;;;;;;;;;;4396514;32;71495;-62
2023/08/27 05:29:33;;;;;;;3.78;2.70;;;;;;;;;;4398574;32;65145;-61
2023/08/27 05:32:23;;;;;;;5.20;2.97;;;;;;;;;;4396983;32;68398;-61
2023/08/27 05:35:15;;;;;;;4.93;3.17;;;;;;;;;;4398243;32;67594;-61
2023/08/27 05:38:06;;;;;;;4.30;3.35;;;;;;;;;;4386212;32;70788;-62
2023/08/27 05:40:55;;;;;;;4.60;3.40;;;;;;;;;;4397429;32;66293;-62
2023/08/27 05:43:44;;;;;;;4.07;3.10;;;;;;;;;;4397742;32;67024;-62
2023/08/27 05:46:43;;;;;;;4.45;2.53;;;;;;;;;;4386554;32;60785;-62
2023/08/27 05:49:34;;;;;;;4.80;3.35;;;;;;;;;;4398125;32;69557;-62
2023/08/27 05:52:21;;;;;;;3.90;2.58;;;;;;;;;;4398061;32;69572;-61
2023/08/27 05:55:13;;;;;;;3.95;2.87;;;;;;;;;;4396885;32;66629;-61
2023/08/27 05:57:59;;;;;;;4.05;3.08;;;;;;;;;;4398238;32;60397;-61
2023/08/27 06:00:46;;;;;;;5.20;3.45;;;;;;;;;;4396894;32;70347;-62
2023/08/27 06:03:46;;;;;;;5.97;3.12;;;;;;;;;;4398180;32;69240;-61
2023/08/27 06:06:36;;;;;;;3.60;2.78;;;;;;;;;;4396084;32;68632;-62
2023/08/27 06:09:28;;;;;;;4.32;2.50;;;;;;;;;;4386297;32;70428;-62
2023/08/27 06:12:17;;;;;;;4.37;2.45;;;;;;;;;;4398065;32;65793;-61
2023/08/27 06:15:08;;;;;;;5.35;2.50;;;;;;;;;;4397213;32;67814;-63
2023/08/27 06:18:02;;;;;;;3.35;2.42;;;;;;;;;;4399680;32;60091;-61
2023/08/27 06:20:50;;;;;;;3.37;2.40;;;;;;;;;;4399198;32;70508;-61
2023/08/27 06:23:44;;;;;;;3.55;2.53;;;;;;;;;;4400698;32;65975;-62
2023/08/27 06:26:36;;;;;;;4.85;2.65;;;;;;;;;;4400574;32;66894;-61
2023/08/27 06:29:25;;;;;;;4.30;2.70;;;;;;;;;;4399768;32;59855;-61
2023/08/27 06:32:20;;;;;;;3.25;2.37;;;;;;;;;;4398775;32;71094;-62
2023/08/27 06:35:12;;;;;;;4.25;2.42;;;;;;;;;;4401301;32;69454;-61
2023/08/27 06:37:59;;;;;;;3.28;2.65;;;;;;;;;;4400486;32;66763;-61
2023/08/27 06:40:46;;;;;;;3.42;2.58;;;;;;;;;;4387863;32;71394;-62
2023/08/27 06:43:37;;;;;;;4.37;2.72;;;;;;;;;;4377613;32;64904;-62
2023/08/27 06:46:25;;;;;;;5.57;2.75;;;;;;;;;;4399504;32;68070;-62
2023/08/27 06:49:16;;;;;;;5.20;2.95;;;;;;;;;;4399210;32;67520;-61
2023/08/27 06:52:14;;;;;;;;;;;;;;;;;;4400741;32;73541;-61
2023/08/27 06:55:11;;;;;;;4.70;2.62;;;;;;;;;;4400408;32;65292;-62
2023/08/27 06:57:59;;;;;;;5.75;2.90;;;;;;;;;;4400311;32;67013;-61
2023/08/27 07:00:46;;;;;;;5.72;2.92;;;;;;;;;;4402586;32;60229;-63
2023/08/27 07:03:36;;;;;;;3.87;2.90;;;;;;;;;;4400275;32;69493;-62
2023/08/27 07:06:25;;;;;;;4.18;2.95;;;;;;;;;;4389570;32;69397;-61
2023/08/27 07:09:28;;;;;;;3.78;2.83;;;;;;;;;;4400118;32;67869;-61
2023/08/27 07:12:18;;;;;;;6.03;2.65;;;;;;;;;;4415438;32;71684;-61
2023/08/27 07:15:05;;;;;;;4.03;2.78;;;;;;;;;;4413469;32;70436;-62
2023/08/27 07:18:04;;;;;;;4.70;2.95;;;;;;;;;;4416841;32;69436;-61
2023/08/27 07:20:52;;;;;;;5.07;3.55;;;;;;;;;;4416559;32;69151;-61
2023/08/27 07:23:49;;;;;;;5.45;3.25;;;;;;;;;;4403200;32;70453;-62
2023/08/27 07:26:36;;;;;;;6.60;3.20;;;;;;;;;;4406084;32;66064;-61
2023/08/27 07:29:22;;;;;;;6.35;3.47;;;;;;;;;;4421213;32;68100;-61
2023/08/27 07:32:19;;;;;;;5.20;3.53;;;;;;;;;;4410955;32;60236;-62
2023/08/27 07:35:18;;;;;;;5.25;3.37;;;;;;;;;;4420719;32;70570;-61
2023/08/27 07:38:26;;;;;;;5.32;3.28;;;;;;;;;;4419708;32;67718;-62
2023/08/27 07:41:22;;;;;;;4.22;2.78;;;;;;;;;;4417411;32;68500;-61
2023/08/27 07:44:16;;;;;;;3.80;2.80;;;;;;;;;;4406512;32;60398;-61
2023/08/27 07:47:14;;;;;;;4.80;2.75;;;;;;;;;;4410892;32;69685;-62
2023/08/27 07:50:08;;;;;;;3.97;2.85;;;;;;;;;;4397028;32;68117;-62
2023/08/27 07:53:11;;;;;;;5.37;3.05;;;;;;;;;;4418411;32;68108;-61
2023/08/27 07:55:58;;;;;;;4.28;2.83;;;;;;;;;;4406835;32;71883;-62
2023/08/27 07:58:45;;;;;;;4.12;3.00;;;;;;;;;;4416782;32;64962;-61
2023/08/27 08:01:32;;;;;;;;;;;;;;;;;;4392095;32;66345;-61
2023/08/27 08:04:11;;;;;;;5.82;3.20;;;;;;;;;;3868987;36;43859;-62
2023/08/27 08:07:03;;;;;;;4.40;2.58;;;;;;;;;;4414896;32;60142;-61
2023/08/27 08:10:09;;;;;;;4.53;2.95;;;;;;;;;;4411598;32;70190;-62
2023/08/27 08:13:04;;;;;;;4.87;3.25;;;;;;;;;;4414767;32;68099;-62
2023/08/27 08:15:52;;;;;;;4.90;3.08;;;;;;;;;;4426474;32;66732;-62
2023/08/27 08:18:49;;;;;;;4.45;3.30;;;;;;;;;;4426439;32;71789;-60
2023/08/27 08:21:40;;;;;;;4.50;2.92;;;;;;;;;;4411675;32;65953;-62
2023/08/27 08:24:36;;;;;;;5.50;3.50;;;;;;;;;;4394704;32;67172;-61
2023/08/27 08:27:33;;;;;;;4.55;3.40;;;;;;;;;;4426442;32;59000;-61
2023/08/27 08:30:22;;;;;;;5.12;3.25;;;;;;;;;;4411157;32;71501;-61
2023/08/27 08:33:13;;;;;;;5.40;3.05;;;;;;;;;;4416260;32;64903;-61
2023/08/27 08:36:05;;;;;;;5.12;3.17;;;;;;;;;;4415699;32;67423;-61
2023/08/27 08:39:07;;;;;;;5.28;3.30;;;;;;;;;;4402115;32;60394;-61
2023/08/27 08:42:21;;;;;;;5.70;3.75;;;;;;;;;;4414069;32;70541;-62
2023/08/27 08:45:18;;;;;;;6.37;3.83;;;;;;;;;;3847612;37;43824;-61
2023/08/27 08:48:11;;;;;;;5.32;3.60;;;;;;;;;;4411279;32;60258;-61
2023/08/27 08:50:57;;;;;;;6.15;3.37;;;;;;;;;;4411011;32;70319;-61
2023/08/27 08:53:51;;;;;;;5.65;3.40;;;;;;;;;;4409759;32;68315;-62
2023/08/27 08:56:48;;;;;;;5.22;4.28;;;;;;;;;;4409640;32;66586;-60
2023/08/27 08:59:39;;;;;;;6.97;3.83;;;;;;;;;;4399202;32;71924;-61
2023/08/27 09:02:28;;;;;;;5.90;3.67;;;;;;;;;;4409808;32;65919;-61
2023/08/27 09:05:24;;;;;;;5.20;3.70;;;;;;;;;;4409706;32;67125;-60
2023/08/27 09:08:11;;;;;;;4.70;3.03;;;;;;;;;;4411284;32;60324;-62
2023/08/27 09:11:08;;;;;;;4.70;3.80;;;;;;;;;;4409420;32;71674;-61
2023/08/27 09:14:02;;;;;;;4.73;3.30;;;;;;;;;;4409564;32;65694;-62
2023/08/27 09:16:59;;;;;;;5.18;2.97;;;;;;;;;;4399410;32;66511;-62
2023/08/27 09:19:47;;;;;;;4.43;3.12;;;;;;;;;;4410783;32;59663;-61
2023/08/27 09:22:38;;;;;;;5.62;3.20;;;;;;;;;;4409201;32;70332;-61
2023/08/27 09:25:32;;;;;;;6.55;3.10;;;;;;;;;;4410598;32;68442;-62
2023/08/27 09:28:26;;;;;;;4.75;3.30;;;;;;;;;;4397968;32;67852;-60
2023/08/27 09:31:46;;;;;;;6.10;3.47;;;;;;;;;;4399783;32;70718;-60
2023/08/27 09:34:45;;;;;;;4.20;3.00;;;;;;;;;;4411145;32;65890;-61
2023/08/27 09:37:42;;;;;;;4.43;2.75;;;;;;;;;;4419790;32;69846;-66
2023/08/27 09:40:47;;;;;;;5.60;3.20;;;;;;;;;;4403091;32;67562;-61
2023/08/27 09:43:56;;;;;;;5.70;3.33;;;;;;;;;;4399039;32;70674;-61
2023/08/27 09:46:55;;;;;;;5.10;3.33;;;;;;;;;;4398411;32;66786;-62
2023/08/27 09:49:51;;;;;;;4.43;3.15;;;;;;;;;;4408765;32;67926;-62
2023/08/27 09:52:48;;;;;;;5.22;2.87;;;;;;;;;;4410317;32;60657;-61
2023/08/27 09:55:36;;;;;;;4.60;3.20;;;;;;;;;;4403782;32;69646;-61
2023/08/27 09:58:28;;;;;;;4.20;3.03;;;;;;;;;;4387745;32;69068;-61
2023/08/27 10:01:25;;;;;;;3.53;2.70;;;;;;;;;;4399400;32;67708;-61
2023/08/27 10:04:23;;;;;;;4.37;2.80;;;;;;;;;;4389302;32;59307;-61
2023/08/27 10:07:25;;;;;;;4.90;2.90;;;;;;;;;;4388287;32;69265;-61
2023/08/27 10:10:18;;;;;;;4.22;2.78;;;;;;;;;;4387205;32;69685;-61
2023/08/27 10:13:12;;;;;;;3.62;2.78;;;;;;;;;;4398513;32;67843;-62
2023/08/27 10:16:03;;;;;;;4.25;3.08;;;;;;;;;;4377179;32;69968;-61
2023/08/27 10:19:01;;;;;;;4.55;3.40;;;;;;;;;;4398631;32;65995;-61
2023/08/27 10:21:58;;;;;;;5.10;3.17;;;;;;;;;;4399898;32;66588;-62
2023/08/27 10:24:48;;;;;;;5.20;3.30;;;;;;;;;;4388441;32;59038;-62
2023/08/27 10:27:35;;;;;;;4.95;3.40;;;;;;;;;;4399168;32;70330;-61
2023/08/27 10:30:27;;;;;;;5.15;3.70;;;;;;;;;;4387786;32;65978;-61
2023/08/27 10:33:26;;;;;;;5.45;3.80;;;;;;;;;;4398851;32;68316;-61
2023/08/27 10:36:27;;;;;;;5.95;3.87;;;;;;;;;;4398583;32;59083;-61
2023/08/27 10:39:16;;;;;;;7.47;3.65;;;;;;;;;;4377542;32;70701;-61
2023/08/27 10:42:32;;;;;;;6.18;3.83;;;;;;;;;;4398244;32;69630;-61
2023/08/27 10:45:32;;;;;;;6.32;3.95;;;;;;;;;;4398326;32;67859;-63
2023/08/27 10:48:23;;;;;;;5.45;3.30;;;;;;;;;;4386583;32;72039;-62
2023/08/27 10:51:17;;;;;;;6.47;4.68;;;;;;;;;;4387570;32;66470;-62
2023/08/27 10:54:07;;;;;;;7.80;4.18;;;;;;;;;;4380889;32;67776;-61
2023/08/27 10:57:21;;;;;;;9.02;4.57;;;;;;;;;;4398102;32;66803;-63
2023/08/27 11:00:12;;;;;;;6.47;3.90;;;;;;;;;;4398072;32;71994;-62
2023/08/27 11:05:36;;;;;;;5.43;3.50;;;;;;;;;;3868960;36;43402;-62
2023/08/27 11:08:52;;;;;;;5.50;3.20;;;;;;;;;;4399629;32;59870;-61
2023/08/27 11:11:55;;;;;;;8.00;4.18;;;;;;;;;;4399576;32;70910;-61
2023/08/27 11:14:45;;;;;;;6.15;4.03;;;;;;;;;;4399554;32;68406;-61
2023/08/27 11:17:44;;;;;;;5.35;3.60;;;;;;;;;;4396856;32;68037;-61
2023/08/27 11:20:39;;;;;;;6.35;4.80;;;;;;;;;;4411215;32;70785;-62
2023/08/27 11:23:28;;;;;;;6.93;5.00;;;;;;;;;;4411020;32;65012;-62
2023/08/27 11:26:20;;;;;;;9.50;5.75;;;;;;;;;;4398951;32;67088;-61
2023/08/27 11:29:42;;;;;;;7.60;5.12;;;;;;;;;;4388992;32;61237;-61
2023/08/27 11:32:31;;;;;;;7.20;4.28;;;;;;;;;;4410592;32;71989;-62
2023/08/27 11:35:44;;;;;;;6.37;3.85;;;;;;;;;;4411217;32;66213;-62
2023/08/27 11:38:34;;;;;;;5.12;3.62;;;;;;;;;;4411578;32;66936;-62
2023/08/27 11:41:37;;;;;;;5.95;3.45;;;;;;;;;;4415131;32;60198;-62
2023/08/27 11:44:29;;;;;;;8.35;3.45;;;;;;;;;;4410853;32;69888;-62
2023/08/27 11:47:29;;;;;;;4.05;2.90;;;;;;;;;;4398314;32;68510;-62
2023/08/27 11:50:19;;;;;;;4.87;3.53;;;;;;;;;;4398611;32;67812;-61
2023/08/27 11:53:13;;;;;;;5.93;3.42;;;;;;;;;;4398525;32;72045;-62
2023/08/27 11:56:08;;;;;;;3.70;2.67;;;;;;;;;;4388595;32;67055;-61
2023/08/27 11:59:16;;;;;;;;;;;;;;;;;;;;;
2023/08/27 12:02:27;;;;;;;4.53;3.10;;;;;;;;;;4410355;32;67470;-63
2023/08/27 12:05:33;;;;;;;4.62;3.03;;;;;;;;;;4390212;32;70819;-62
2023/08/27 12:08:21;;;;;;;5.10;3.12;;;;;;;;;;4401229;32;65923;-61
2023/08/27 12:11:28;;;;;;;3.97;3.00;;;;;;;;;;4400421;32;66969;-62
2023/08/27 12:14:33;;;;;;;4.30;2.60;;;;;;;;;;4410554;32;59346;-61
2023/08/27 12:17:22;;;;;;;4.03;2.92;;;;;;;;;;4365038;32;71225;-62
2023/08/27 12:20:35;;;;;;;3.17;2.60;;;;;;;;;;4390065;32;69606;-61
2023/08/27 12:23:27;;;;;;;3.75;2.90;;;;;;;;;;4400004;32;67547;-61
2023/08/27 12:26:16;;;;;;;3.92;2.70;;;;;;;;;;4374644;32;60324;-62
2023/08/27 12:29:07;;;;;;;3.45;2.50;;;;;;;;;;4388015;32;69739;-62
2023/08/27 12:32:13;;;;;;;4.12;3.10;;;;;;;;;;4385226;32;70409;-61
2023/08/27 12:35:02;;;;;;;5.15;2.55;;;;;;;;;;4388546;32;67879;-61
2023/08/27 12:37:53;;;;;;;3.05;2.35;;;;;;;;;;4377245;32;72380;-61
2023/08/27 12:41:31;;;;;;;4.18;2.65;;;;;;;;;;4399724;32;64866;-61
2023/08/27 12:44:28;;;;;;;2.95;2.45;;;;;;;;;;4385072;32;67095;-62
2023/08/27 12:47:23;;;;;;;3.80;3.05;;;;;;;;;;4399748;32;60128;-61
2023/08/27 12:50:15;;;;;;;5.30;2.97;;;;;;;;;;4399240;32;69491;-62
2023/08/27 12:53:09;;;;;;;3.80;2.35;;;;;;;;;;4385175;32;67241;-62
2023/08/27 12:56:09;;;;;;;4.07;3.00;;;;;;;;;;4399509;32;67841;-61
2023/08/27 12:58:57;;;;;;;3.53;2.40;;;;;;;;;;4399776;32;59838;-61
2023/08/27 13:01:47;;;;;;;4.87;2.80;;;;;;;;;;4384945;32;71627;-61
2023/08/27 13:04:38;;;;;;;3.28;2.60;;;;;;;;;;4400843;32;69317;-62
2023/08/27 13:07:33;;;;;;;3.60;2.60;;;;;;;;;;4387621;32;67848;-62
2023/08/27 13:10:27;;;;;;;3.55;2.55;;;;;;;;;;4388323;32;71769;-62
2023/08/27 13:13:17;;;;;;;4.20;2.65;;;;;;;;;;4399228;32;65420;-61
2023/08/27 13:16:17;;;;;;;5.40;3.12;;;;;;;;;;4399377;32;66814;-62
2023/08/27 13:19:11;;;;;;;4.15;2.42;;;;;;;;;;4384961;32;68419;-61
2023/08/27 13:22:02;;;;;;;3.70;2.47;;;;;;;;;;4385418;32;72528;-62
2023/08/27 13:24:58;;;;;;;3.72;2.70;;;;;;;;;;4399267;32;66004;-61
2023/08/27 13:27:57;;;;;;;5.03;3.00;;;;;;;;;;4377984;32;67718;-63
2023/08/27 13:31:09;;;;;;;4.75;3.28;;;;;;;;;;4389566;32;60188;-62
2023/08/27 13:34:02;;;;;;;5.03;2.90;;;;;;;;;;4399029;32;70688;-61
2023/08/27 13:36:58;;;;;;;3.65;2.55;;;;;;;;;;4378574;32;69205;-62
2023/08/27 13:39:46;;;;;;;4.65;2.47;;;;;;;;;;4386822;32;67587;-61
2023/08/27 13:42:43;;;;;;;5.03;2.62;;;;;;;;;;4400129;32;58947;-62
2023/08/27 13:45:32;;;;;;;3.30;2.45;;;;;;;;;;4377049;32;68034;-62
2023/08/27 13:48:21;;;;;;;4.07;3.05;;;;;;;;;;4377696;32;69517;-62
2023/08/27 13:51:08;;;;;;;3.55;2.50;;;;;;;;;;4399329;32;67674;-62
2023/08/27 13:56:43;;;;;;;4.07;2.78;;;;;;;;;;3847735;37;43821;-61
2023/08/27 13:59:55;;;;;;;4.12;2.70;;;;;;;;;;4410685;32;59782;-61
2023/08/27 14:02:48;;;;;;;4.22;2.83;;;;;;;;;;4399268;32;70952;-61
2023/08/27 14:05:42;;;;;;;4.60;2.75;;;;;;;;;;4388863;32;68887;-61
2023/08/27 14:08:31;;;;;;;4.28;2.97;;;;;;;;;;4374228;32;67219;-62
2023/08/27 14:11:22;;;;;;;4.90;3.28;;;;;;;;;;4384520;32;71834;-60
2023/08/27 14:14:24;;;;;;;6.03;3.65;;;;;;;;;;4394674;32;65951;-62
2023/08/27 14:17:28;;;;;;;9.20;4.53;;;;;;;;;;4383578;32;67168;-62
2023/08/27 14:20:15;;;;;;;7.15;4.07;;;;;;;;;;4395654;32;58954;-61
2023/08/27 14:23:18;;;;;;;;;;;;;;;;;;;;;
2023/08/27 14:26:12;;;;;;;7.15;4.40;;;;;;;;;;4395606;32;64954;-61
2023/08/27 14:29:06;;;;;;;6.47;4.12;;;;;;;;;;4394381;32;66336;-61
2023/08/27 14:32:06;;;;;;;7.85;3.87;;;;;;;;;;4394349;32;60249;-62
2023/08/27 14:35:03;;;;;;;6.43;3.50;;;;;;;;;;4384418;32;71378;-61
2023/08/27 14:38:00;;;;;;;4.70;3.30;;;;;;;;;;4394144;32;68435;-61
2023/08/27 14:41:01;;;;;;;5.37;3.20;;;;;;;;;;4394167;32;66745;-62
2023/08/27 14:43:49;;;;;;;4.72;3.25;;;;;;;;;;4396045;32;71654;-60
2023/08/27 14:46:39;;;;;;;4.65;2.95;;;;;;;;;;4393607;32;66392;-62
2023/08/27 14:49:41;;;;;;;5.30;3.05;;;;;;;;;;4395144;32;68246;-62
2023/08/27 14:52:40;;;;;;;6.97;3.40;;;;;;;;;;4395091;32;67647;-62
2023/08/27 14:55:34;;;;;;;6.12;3.30;;;;;;;;;;4393336;32;71566;-61
2023/08/27 14:58:23;;;;;;;6.18;3.50;;;;;;;;;;4395168;32;65065;-61
2023/08/27 15:01:10;;;;;;;5.25;3.30;;;;;;;;;;4382939;32;67832;-62
2023/08/27 15:04:12;;;;;;;4.25;3.28;;;;;;;;;;4393759;32;60155;-62
2023/08/27 15:07:02;;;;;;;4.35;3.20;;;;;;;;;;4388899;32;70267;-61
2023/08/27 15:10:00;;;;;;;4.55;3.30;;;;;;;;;;4373690;32;69946;-61
2023/08/27 15:12:56;;;;;;;5.25;3.30;;;;;;;;;;4386416;32;67023;-62
2023/08/27 15:15:55;;;;;;;5.07;3.33;;;;;;;;;;4383658;32;59095;-61
2023/08/27 15:19:01;;;;;;;4.93;3.15;;;;;;;;;;4383571;32;69619;-62
2023/08/27 15:21:57;;;;;;;5.72;3.78;;;;;;;;;;4383217;32;68276;-61
2023/08/27 15:24:47;;;;;;;6.55;3.78;;;;;;;;;;4373395;32;66647;-62
2023/08/27 15:27:42;;;;;;;6.30;3.72;;;;;;;;;;4384469;32;71641;-61
2023/08/27 15:30:36;;;;;;;7.80;4.43;;;;;;;;;;4384506;32;66076;-61
2023/08/27 15:33:33;;;;;;;6.72;3.95;;;;;;;;;;4373193;32;66634;-62
2023/08/27 15:36:25;;;;;;;6.30;4.00;;;;;;;;;;4374591;32;59327;-61
2023/08/27 15:39:19;;;;;;;4.93;3.70;;;;;;;;;;4372349;32;70440;-61
2023/08/27 15:42:14;;;;;;;6.03;4.10;;;;;;;;;;4382977;32;64924;-61
2023/08/27 15:45:02;;;;;;;7.15;3.80;;;;;;;;;;4371644;32;68068;-61
2023/08/27 15:48:16;;;;;;;8.07;4.10;;;;;;;;;;4383914;32;60301;-62
2023/08/27 15:51:03;;;;;;;7.60;3.75;;;;;;;;;;4382929;32;69742;-61
2023/08/27 15:53:52;;;;;;;;;;;;;;;;;;4384696;32;69429;-61
2023/08/27 15:56:39;;;;;;;5.95;4.25;;;;;;;;;;4384676;32;67567;-61
2023/08/27 15:59:28;;;;;;;7.00;4.47;;;;;;;;;;4382311;32;72290;-62
2023/08/27 16:02:18;;;;;;;5.93;3.87;;;;;;;;;;4361961;32;67270;-61
2023/08/27 16:05:07;;;;;;;;;;;;;;;;;;4384462;32;66650;-62
2023/08/27 16:07:58;;;;;;;5.25;3.60;;;;;;;;;;4386249;32;67508;-62
2023/08/27 16:10:50;;;;;;;5.70;3.60;;;;;;;;;;4382235;32;72970;-62
2023/08/27 16:13:39;;;;;;;7.43;4.00;;;;;;;;;;4384163;32;66197;-61
2023/08/27 16:16:32;;;;;;;6.07;3.53;;;;;;;;;;4372460;32;67332;-62
2023/08/27 16:19:28;;;;;;;5.90;3.92;;;;;;;;;;4382067;32;59317;-61
2023/08/27 16:22:20;;;;;;;4.85;3.47;;;;;;;;;;4372233;32;70756;-61
2023/08/27 16:25:08;;;;;;;5.85;3.90;;;;;;;;;;4371952;32;68377;-62
2023/08/27 16:27:55;;;;;;;6.57;3.62;;;;;;;;;;4382060;32;68151;-61
2023/08/27 16:30:47;;;;;;;6.43;3.72;;;;;;;;;;4361658;32;60674;-61
2023/08/27 16:33:43;;;;;;;;;;;;;;;;;;4385296;32;69485;-61
2023/08/27 16:36:38;;;;;;;7.07;4.00;;;;;;;;;;4382548;32;69407;-61
2023/08/27 16:39:30;;;;;;;9.90;4.57;;;;;;;;;;4371451;32;66816;-62
2023/08/27 16:42:21;;;;;;;8.40;4.47;;;;;;;;;;4382270;32;71744;-61
2023/08/27 16:45:10;;;;;;;9.13;3.60;;;;;;;;;;4383767;32;64842;-60
2023/08/27 16:48:02;;;;;;;4.80;2.90;;;;;;;;;;4383832;32;66783;-62
2023/08/27 16:50:53;;;;;;;5.82;3.20;;;;;;;;;;4382536;32;60586;-62
2023/08/27 16:53:48;;;;;;;8.10;3.30;;;;;;;;;;4370998;32;71059;-62
2023/08/27 16:56:33;;;;;;;5.20;3.03;;;;;;;;;;3847611;37;43421;-61
2023/08/27 16:59:28;;;;;;;4.47;3.08;;;;;;;;;;4411406;32;59975;-62
2023/08/27 17:02:19;;;;;;;4.60;3.03;;;;;;;;;;4410570;32;70520;-61
2023/08/27 17:05:10;;;;;;;4.97;3.00;;;;;;;;;;4409216;32;70144;-62
2023/08/27 17:07:59;;;;;;;4.15;2.75;;;;;;;;;;4410987;32;66391;-62
2023/08/27 17:10:53;;;;;;;4.80;2.90;;;;;;;;;;4410645;32;70599;-61
2023/08/27 17:13:47;;;;;;;4.33;2.97;;;;;;;;;;4409712;32;65892;-62
2023/08/27 17:16:39;;;;;;;4.15;3.00;;;;;;;;;;4409497;32;67388;-61
2023/08/27 17:19:26;;;;;;;4.75;3.00;;;;;;;;;;4411004;32;59090;-62
2023/08/27 17:22:22;;;;;;;6.05;3.50;;;;;;;;;;4409373;32;71033;-61
2023/08/27 17:25:18;;;;;;;5.30;3.28;;;;;;;;;;4409777;32;64850;-61
2023/08/27 17:28:13;;;;;;;6.47;3.10;;;;;;;;;;4409598;32;67575;-61
2023/08/27 17:31:04;;;;;;;4.75;3.10;;;;;;;;;;4398816;32;59968;-61
2023/08/27 17:34:03;;;;;;;6.32;3.20;;;;;;;;;;4412702;32;69252;-61
2023/08/27 17:36:54;;;;;;;3.83;2.95;;;;;;;;;;4409373;32;68255;-62